createdAt,value
2023-03-29T00:00:14.124Z,100934.06
2023-03-29T00:02:42.117Z,100937.63
2023-03-29T00:05:13.189Z,100935.72
2023-03-29T00:07:39.666Z,100936.53
2023-03-29T00:10:07.528Z,100930.75
2023-03-29T00:12:37.886Z,100921.25
2023-03-29T00:15:09.246Z,100922.47
2023-03-29T00:17:36.025Z,100917.25
2023-03-29T00:20:03.055Z,100911.88
2023-03-29T00:22:29.498Z,100915.31
2023-03-29T00:25:01.145Z,100917.53
2023-03-29T00:27:27.764Z,100911.31
2023-03-29T00:29:54.679Z,100914.63
2023-03-29T00:32:21.150Z,100912.00
2023-03-29T00:34:50.641Z,100917.81
2023-03-29T00:37:20.295Z,100922.19
2023-03-29T00:39:46.795Z,100919.19
2023-03-29T00:42:18.632Z,100903.22
2023-03-29T00:45:18.990Z,100903.19
2023-03-29T00:47:50.312Z,100900.72
2023-03-29T00:50:30.163Z,100903.19
2023-03-29T00:53:05.835Z,100902.94
2023-03-29T00:55:37.293Z,100899.63
2023-03-29T00:58:08.603Z,100884.59
2023-03-29T01:00:38.276Z,100891.06
2023-03-29T01:03:13.783Z,100887.22
2023-03-29T01:05:55.102Z,100886.69
2023-03-29T01:08:29.479Z,100893.13
2023-03-29T01:11:08.497Z,100888.31
2023-03-29T01:13:50.947Z,100877.31
2023-03-29T01:16:19.935Z,100870.97
2023-03-29T01:18:48.677Z,100870.97
2023-03-29T01:21:44.897Z,100871.06
2023-03-29T01:24:41.828Z,100868.19
2023-03-29T01:27:33.869Z,100852.19
2023-03-29T01:30:07.785Z,100851.66
2023-03-29T01:32:46.210Z,100850.03
2023-03-29T01:35:34.189Z,100835.81
2023-03-29T01:38:16.396Z,100837.72
2023-03-29T01:40:42.793Z,100837.00
2023-03-29T01:43:34.806Z,100839.63
2023-03-29T01:46:04.538Z,100833.84
2023-03-29T01:48:46.778Z,100836.47
2023-03-29T01:51:18.740Z,100839.81
2023-03-29T01:53:59.162Z,100836.63
2023-03-29T01:56:29.198Z,100832.63
2023-03-29T01:59:04.481Z,100830.31
2023-03-29T02:01:40.740Z,100826.19
2023-03-29T02:04:13.096Z,100819.56
2023-03-29T02:06:41.481Z,100818.31
2023-03-29T02:09:08.344Z,100811.16
2023-03-29T02:11:36.438Z,100812.38
2023-03-29T02:14:05.518Z,100805.91
2023-03-29T02:16:36.797Z,100811.69
2023-03-29T02:19:03.862Z,100796.41
2023-03-29T02:22:07.337Z,100794.56
2023-03-29T02:24:36.584Z,100793.72
2023-03-29T02:27:03.827Z,100787.88
2023-03-29T02:29:30.550Z,100786.84
2023-03-29T02:32:05.817Z,100792.63
2023-03-29T02:34:49.301Z,100780.66
2023-03-29T02:37:20.032Z,100780.41
2023-03-29T02:39:49.760Z,100776.97
2023-03-29T02:42:20.290Z,100782.84
2023-03-29T02:44:49.873Z,100771.88
2023-03-29T02:47:33.407Z,100779.00
2023-03-29T02:50:00.445Z,100783.25
2023-03-29T02:52:34.956Z,100780.44
2023-03-29T02:55:04.479Z,100780.50
2023-03-29T02:57:32.297Z,100780.59
2023-03-29T03:00:01.419Z,100774.13
2023-03-29T03:02:28.006Z,100773.03
2023-03-29T03:04:54.853Z,100767.34
2023-03-29T03:07:21.462Z,100778.22
2023-03-29T03:09:48.442Z,100766.09
2023-03-29T03:12:15.071Z,100763.91
2023-03-29T03:14:41.530Z,100769.66
2023-03-29T03:17:08.122Z,100764.84
2023-03-29T03:19:34.584Z,100769.66
2023-03-29T03:22:05.945Z,100764.97
2023-03-29T03:24:35.482Z,100772.66
2023-03-29T03:27:04.828Z,100772.53
2023-03-29T03:29:31.365Z,100759.59
2023-03-29T03:31:58.374Z,100767.94
2023-03-29T03:34:24.844Z,100764.97
2023-03-29T03:36:51.480Z,100763.31
2023-03-29T03:39:18.153Z,100759.59
2023-03-29T03:41:44.634Z,100761.47
2023-03-29T03:44:11.914Z,100758.19
2023-03-29T03:46:38.528Z,100757.63
2023-03-29T03:49:05.706Z,100762.88
2023-03-29T03:51:32.785Z,100756.28
2023-03-29T03:53:59.267Z,100755.91
2023-03-29T03:56:25.781Z,100752.03
2023-03-29T03:58:52.596Z,100752.91
2023-03-29T04:01:19.661Z,100743.72
2023-03-29T04:03:46.433Z,100739.31
2023-03-29T04:06:12.855Z,100742.25
2023-03-29T04:08:39.477Z,100742.53
2023-03-29T04:11:07.302Z,100736.31
2023-03-29T04:13:37.407Z,100744.84
2023-03-29T04:16:03.975Z,100746.63
2023-03-29T04:18:30.675Z,100756.28
2023-03-29T04:20:57.408Z,100754.47
2023-03-29T04:23:25.918Z,100741.03
2023-03-29T04:25:56.660Z,100759.19
2023-03-29T04:28:23.311Z,100753.59
2023-03-29T04:30:52.225Z,100749.78
2023-03-29T04:33:18.715Z,100751.56
2023-03-29T04:35:45.163Z,100750.06
2023-03-29T04:38:11.654Z,100754.25
2023-03-29T04:40:38.361Z,100757.69
2023-03-29T04:43:07.395Z,100752.47
2023-03-29T04:45:36.868Z,100752.34
2023-03-29T04:48:05.880Z,100756.34
2023-03-29T04:50:36.522Z,100755.94
2023-03-29T04:53:03.535Z,100745.63
2023-03-29T04:55:32.353Z,100741.88
2023-03-29T04:57:58.816Z,100748.63
2023-03-29T05:00:27.527Z,100749.88
2023-03-29T05:02:54.216Z,100741.88
2023-03-29T05:05:21.075Z,100749.44
2023-03-29T05:07:47.900Z,100752.75
2023-03-29T05:10:14.869Z,100740.19
2023-03-29T05:12:41.403Z,100744.22
2023-03-29T05:15:09.512Z,100747.22
2023-03-29T05:17:35.945Z,100748.34
2023-03-29T05:20:09.564Z,100751.53
2023-03-29T05:22:36.517Z,100744.22
2023-03-29T05:25:03.026Z,100749.84
2023-03-29T05:27:31.736Z,100740.97
2023-03-29T05:29:58.206Z,100746.47
2023-03-29T05:32:24.699Z,100749.09
2023-03-29T05:34:51.557Z,100750.31
2023-03-29T05:37:17.972Z,100746.72
2023-03-29T05:39:45.179Z,100754.56
2023-03-29T05:42:15.621Z,100747.94
2023-03-29T05:44:44.539Z,100748.81
2023-03-29T05:47:11.318Z,100750.72
2023-03-29T05:49:40.275Z,100755.22
2023-03-29T05:52:06.939Z,100755.63
2023-03-29T05:54:33.438Z,100750.38
2023-03-29T05:56:59.871Z,100756.41
2023-03-29T05:59:29.625Z,100749.34
2023-03-29T06:02:00.466Z,100765.41
2023-03-29T06:04:27.140Z,100766.91
2023-03-29T06:06:54.947Z,100761.94
2023-03-29T06:09:21.500Z,100761.00
2023-03-29T06:11:51.429Z,100761.91
2023-03-29T06:14:18.956Z,100762.00
2023-03-29T06:16:46.416Z,100758.69
2023-03-29T06:19:12.848Z,100766.59
2023-03-29T06:21:39.265Z,100770.16
2023-03-29T06:24:06.811Z,100769.41
2023-03-29T06:26:35.748Z,100768.81
2023-03-29T06:29:04.318Z,100767.63
2023-03-29T06:31:31.570Z,100766.97
2023-03-29T06:33:58.344Z,100766.28
2023-03-29T06:36:25.599Z,100773.59
2023-03-29T06:38:52.414Z,100772.84
2023-03-29T06:41:18.794Z,100776.53
2023-03-29T06:43:47.621Z,100775.88
2023-03-29T06:46:14.389Z,100764.03
2023-03-29T06:48:43.503Z,100770.22
2023-03-29T06:51:12.216Z,100766.56
2023-03-29T06:53:38.737Z,100767.06
2023-03-29T06:56:09.192Z,100775.03
2023-03-29T06:58:35.976Z,100771.56
2023-03-29T07:01:04.023Z,100777.91
2023-03-29T07:03:34.854Z,100784.81
2023-03-29T07:06:04.363Z,100781.56
2023-03-29T07:08:35.147Z,100790.59
2023-03-29T07:11:03.262Z,100791.41
2023-03-29T07:13:30.431Z,100781.56
2023-03-29T07:15:57.474Z,100789.25
2023-03-29T07:18:23.906Z,100788.25
2023-03-29T07:20:50.365Z,100790.91
2023-03-29T07:23:17.962Z,100790.09
2023-03-29T07:25:44.802Z,100777.34
2023-03-29T07:28:11.415Z,100787.22
2023-03-29T07:30:37.877Z,100787.66
2023-03-29T07:33:04.440Z,100786.22
2023-03-29T07:35:31.523Z,100787.19
2023-03-29T07:38:00.800Z,100794.16
2023-03-29T07:40:27.471Z,100796.97
2023-03-29T07:42:58.695Z,100795.78
2023-03-29T07:45:28.675Z,100801.41
2023-03-29T07:47:59.652Z,100798.78
2023-03-29T07:50:28.681Z,100799.91
2023-03-29T07:52:56.926Z,100799.31
2023-03-29T07:55:26.112Z,100794.38
2023-03-29T07:57:53.496Z,100798.84
2023-03-29T08:00:20.760Z,100790.75
2023-03-29T08:02:52.493Z,100798.81
2023-03-29T08:05:29.144Z,100799.34
2023-03-29T08:08:05.220Z,100795.38
2023-03-29T08:10:34.243Z,100797.69
2023-03-29T08:13:00.969Z,100813.28
2023-03-29T08:15:28.135Z,100803.28
2023-03-29T08:17:59.554Z,100797.34
2023-03-29T08:20:26.168Z,100799.31
2023-03-29T08:22:56.284Z,100796.88
2023-03-29T08:25:22.943Z,100798.03
2023-03-29T08:27:54.107Z,100800.69
2023-03-29T08:30:21.081Z,100802.16
2023-03-29T08:32:50.480Z,100796.06
2023-03-29T08:35:19.098Z,100786.22
2023-03-29T08:37:48.418Z,100791.81
2023-03-29T08:40:22.349Z,100777.50
2023-03-29T08:43:19.814Z,100791.31
2023-03-29T08:45:55.833Z,100792.00
2023-03-29T08:48:42.288Z,100789.03
2023-03-29T08:51:24.567Z,100780.66
2023-03-29T08:54:11.494Z,100786.88
2023-03-29T08:56:40.566Z,100782.44
2023-03-29T08:59:18.936Z,100779.00
2023-03-29T09:01:48.716Z,100786.41
2023-03-29T09:04:22.828Z,100789.88
2023-03-29T09:06:52.291Z,100793.66
2023-03-29T09:09:25.825Z,100791.84
2023-03-29T09:12:06.886Z,100784.41
2023-03-29T09:14:39.363Z,100784.59
2023-03-29T09:17:34.731Z,100778.50
2023-03-29T09:20:07.039Z,100787.00
2023-03-29T09:22:36.614Z,100790.75
2023-03-29T09:25:16.674Z,100788.66
2023-03-29T09:27:48.185Z,100775.34
2023-03-29T09:30:25.942Z,100778.44
2023-03-29T09:32:53.601Z,100774.97
2023-03-29T09:35:32.051Z,100766.00
2023-03-29T09:37:58.983Z,100767.09
2023-03-29T09:40:42.706Z,100765.81
2023-03-29T09:43:13.457Z,100775.78
2023-03-29T09:45:41.226Z,100772.44
2023-03-29T09:48:16.763Z,100766.78
2023-03-29T09:50:48.751Z,100776.50
2023-03-29T09:53:16.126Z,100775.56
2023-03-29T09:55:44.811Z,100768.66
2023-03-29T09:58:24.344Z,100766.69
2023-03-29T10:00:51.197Z,100759.88
2023-03-29T10:03:23.765Z,100756.94
2023-03-29T10:05:57.343Z,100767.31
2023-03-29T10:08:27.753Z,100755.53
2023-03-29T10:10:57.783Z,100758.22
2023-03-29T10:13:32.976Z,100747.81
2023-03-29T10:16:17.163Z,100747.81
2023-03-29T10:18:43.966Z,100751.38
2023-03-29T10:21:20.773Z,100757.59
2023-03-29T10:23:48.712Z,100743.91
2023-03-29T10:26:24.329Z,100740.63
2023-03-29T10:28:53.953Z,100734.41
2023-03-29T10:31:24.550Z,100727.94
2023-03-29T10:33:54.247Z,100725.78
2023-03-29T10:36:22.446Z,100723.44
2023-03-29T10:38:51.105Z,100718.53
2023-03-29T10:41:18.851Z,100709.44
2023-03-29T10:43:49.417Z,100714.63
2023-03-29T10:46:27.970Z,100709.34
2023-03-29T10:49:06.220Z,100703.78
2023-03-29T10:51:34.501Z,100712.66
2023-03-29T10:54:02.490Z,100711.63
2023-03-29T10:56:51.957Z,100704.25
2023-03-29T10:59:27.672Z,100699.09
2023-03-29T11:02:15.856Z,100686.81
2023-03-29T11:04:57.350Z,100690.03
2023-03-29T11:07:35.924Z,100689.69
2023-03-29T11:10:11.149Z,100670.59
2023-03-29T11:12:45.198Z,100680.22
2023-03-29T11:15:39.585Z,100694.38
2023-03-29T11:18:22.204Z,100689.28
2023-03-29T11:21:21.146Z,100690.69
2023-03-29T11:24:12.788Z,100689.44
2023-03-29T11:26:58.965Z,100680.84
2023-03-29T11:29:33.578Z,100672.88
2023-03-29T11:32:26.616Z,100677.13
2023-03-29T11:35:22.315Z,100672.53
2023-03-29T11:37:59.638Z,100668.66
2023-03-29T11:40:45.984Z,100675.75
2023-03-29T11:43:20.371Z,100677.66
2023-03-29T11:45:53.522Z,100687.88
2023-03-29T11:48:30.462Z,100687.16
2023-03-29T11:51:14.124Z,100665.66
2023-03-29T11:53:56.993Z,100667.72
2023-03-29T11:56:31.659Z,100669.59
2023-03-29T11:59:05.132Z,100665.50
2023-03-29T12:01:37.464Z,100654.25
2023-03-29T12:04:15.062Z,100644.16
2023-03-29T12:07:10.818Z,100656.41
2023-03-29T12:09:44.752Z,100646.94
2023-03-29T12:12:23.372Z,100648.03
2023-03-29T12:15:13.218Z,100636.72
2023-03-29T12:17:49.345Z,100637.97
2023-03-29T12:20:21.102Z,100627.03
2023-03-29T12:22:49.081Z,100626.47
2023-03-29T12:25:21.939Z,100624.13
2023-03-29T12:28:18.150Z,100624.19
2023-03-29T12:30:55.037Z,100615.00
2023-03-29T12:33:43.017Z,100613.69
2023-03-29T12:36:18.442Z,100625.34
2023-03-29T12:38:45.413Z,100615.59
2023-03-29T12:41:17.520Z,100613.25
2023-03-29T12:43:46.675Z,100617.88
2023-03-29T12:46:27.404Z,100612.63
2023-03-29T12:49:05.983Z,100614.00
2023-03-29T12:51:34.998Z,100620.91
2023-03-29T12:54:32.236Z,100612.03
2023-03-29T12:57:20.055Z,100604.31
2023-03-29T12:59:48.826Z,100607.94
2023-03-29T13:02:15.354Z,100600.88
2023-03-29T13:04:56.711Z,100599.66
2023-03-29T13:07:23.239Z,100600.53
2023-03-29T13:09:54.847Z,100598.47
2023-03-29T13:12:34.586Z,100589.63
2023-03-29T13:15:05.463Z,100598.38
2023-03-29T13:18:03.696Z,100589.31
2023-03-29T13:20:37.329Z,100590.97
2023-03-29T13:23:29.463Z,100593.66
2023-03-29T13:26:02.545Z,100589.06
2023-03-29T13:28:44.481Z,100585.44
2023-03-29T13:31:30.014Z,100588.09
2023-03-29T13:34:26.718Z,100600.66
2023-03-29T13:37:32.111Z,100591.97
2023-03-29T13:39:58.592Z,100581.94
2023-03-29T13:42:39.470Z,100572.00
2023-03-29T13:45:33.684Z,100580.41
2023-03-29T13:48:29.510Z,100584.47
2023-03-29T13:51:18.347Z,100577.97
2023-03-29T13:53:54.124Z,100577.97
2023-03-29T13:56:29.987Z,100580.75
2023-03-29T13:59:25.724Z,100562.72
2023-03-29T14:01:57.917Z,100560.44
2023-03-29T14:04:27.833Z,100555.38
2023-03-29T14:06:56.771Z,100553.13
2023-03-29T14:09:32.866Z,100568.63
2023-03-29T14:12:00.777Z,100568.63
2023-03-29T14:14:30.757Z,100562.56
2023-03-29T14:16:57.390Z,100552.06
2023-03-29T14:19:35.519Z,100541.88
2023-03-29T14:22:07.058Z,100551.63
2023-03-29T14:24:49.792Z,100553.47
2023-03-29T14:27:17.642Z,100544.34
2023-03-29T14:29:53.153Z,100545.81
2023-03-29T14:32:29.046Z,100549.47
2023-03-29T14:34:58.660Z,100552.72
2023-03-29T14:37:32.347Z,100550.41
2023-03-29T14:40:01.437Z,100555.28
2023-03-29T14:42:29.151Z,100543.41
2023-03-29T14:45:04.219Z,100536.06
2023-03-29T14:47:32.876Z,100531.47
2023-03-29T14:50:03.921Z,100525.78
2023-03-29T14:52:31.884Z,100518.38
2023-03-29T14:55:01.806Z,100520.16
2023-03-29T14:57:34.421Z,100513.19
2023-03-29T15:00:22.095Z,100515.19
2023-03-29T15:02:53.464Z,100507.00
2023-03-29T15:05:36.498Z,100503.50
2023-03-29T15:08:07.392Z,100498.78
2023-03-29T15:10:36.684Z,100485.94
2023-03-29T15:13:07.866Z,100484.22
2023-03-29T15:15:38.250Z,100483.66
2023-03-29T15:18:07.218Z,100487.00
2023-03-29T15:20:37.741Z,100492.31
2023-03-29T15:23:06.552Z,100488.47
2023-03-29T15:25:58.056Z,100485.16
2023-03-29T15:28:32.437Z,100484.06
2023-03-29T15:31:14.115Z,100484.53
2023-03-29T15:33:42.276Z,100488.88
2023-03-29T15:36:11.271Z,100487.13
2023-03-29T15:38:44.112Z,100488.31
2023-03-29T15:41:13.582Z,100489.19
2023-03-29T15:43:43.231Z,100485.88
2023-03-29T15:46:13.940Z,100487.72
2023-03-29T15:48:40.900Z,100485.06
2023-03-29T15:51:11.734Z,100487.38
2023-03-29T15:53:38.770Z,100493.06
2023-03-29T15:56:08.104Z,100477.28
2023-03-29T15:58:35.429Z,100483.63
2023-03-29T16:01:23.662Z,100490.88
2023-03-29T16:03:50.969Z,100479.78
2023-03-29T16:06:17.828Z,100485.03
2023-03-29T16:08:44.589Z,100478.91
2023-03-29T16:11:11.561Z,100476.06
2023-03-29T16:13:37.992Z,100484.84
2023-03-29T16:16:05.524Z,100482.84
2023-03-29T16:18:32.302Z,100481.03
2023-03-29T16:20:59.352Z,100480.28
2023-03-29T16:23:26.550Z,100481.91
2023-03-29T16:25:55.830Z,100473.72
2023-03-29T16:28:22.436Z,100469.44
2023-03-29T16:30:51.372Z,100469.66
2023-03-29T16:33:17.899Z,100472.13
2023-03-29T16:35:44.434Z,100468.25
2023-03-29T16:38:10.941Z,100461.34
2023-03-29T16:40:39.641Z,100456.84
2023-03-29T16:43:12.605Z,100450.53
2023-03-29T16:45:39.097Z,100439.31
2023-03-29T16:48:05.730Z,100439.34
2023-03-29T16:50:32.408Z,100438.31
2023-03-29T16:52:59.126Z,100449.38
2023-03-29T16:55:25.620Z,100443.03
2023-03-29T16:57:52.446Z,100442.22
2023-03-29T17:00:20.252Z,100433.44
2023-03-29T17:02:49.615Z,100429.97
2023-03-29T17:05:19.293Z,100426.91
2023-03-29T17:07:51.463Z,100433.44
2023-03-29T17:10:17.884Z,100423.00
2023-03-29T17:12:44.547Z,100417.13
2023-03-29T17:15:11.285Z,100403.00
2023-03-29T17:17:37.870Z,100420.53
2023-03-29T17:20:11.999Z,100423.38
2023-03-29T17:22:42.047Z,100414.81
2023-03-29T17:25:09.005Z,100412.16
2023-03-29T17:27:37.462Z,100400.13
2023-03-29T17:30:08.219Z,100407.69
2023-03-29T17:32:35.827Z,100403.41
2023-03-29T17:35:02.492Z,100399.31
2023-03-29T17:37:29.290Z,100401.97
2023-03-29T17:39:58.397Z,100405.41
2023-03-29T17:42:24.850Z,100413.34
2023-03-29T17:44:51.293Z,100408.03
2023-03-29T17:47:17.916Z,100406.59
2023-03-29T17:49:46.511Z,100404.31
2023-03-29T17:52:12.968Z,100399.22
2023-03-29T17:54:40.841Z,100390.88
2023-03-29T17:57:07.480Z,100392.31
2023-03-29T17:59:34.049Z,100390.50
2023-03-29T18:02:02.527Z,100378.59
2023-03-29T18:04:29.212Z,100383.91
2023-03-29T18:06:55.671Z,100382.31
2023-03-29T18:09:26.679Z,100376.16
2023-03-29T18:11:54.649Z,100383.31
2023-03-29T18:14:21.419Z,100389.38
2023-03-29T18:16:47.871Z,100391.22
2023-03-29T18:19:15.730Z,100397.50
2023-03-29T18:21:44.494Z,100397.78
2023-03-29T18:24:11.093Z,100402.03
2023-03-29T18:26:40.080Z,100393.06
2023-03-29T18:29:09.867Z,100406.50
2023-03-29T18:31:36.502Z,100394.63
2023-03-29T18:34:03.156Z,100399.72
2023-03-29T18:36:30.386Z,100399.75
2023-03-29T18:39:02.347Z,100390.44
2023-03-29T18:41:28.766Z,100401.00
2023-03-29T18:43:57.274Z,100398.78
2023-03-29T18:46:23.867Z,100402.00
2023-03-29T18:48:53.378Z,100395.69
2023-03-29T18:51:19.911Z,100406.50
2023-03-29T18:53:46.389Z,100397.91
2023-03-29T18:56:12.834Z,100402.22
2023-03-29T18:58:39.212Z,100393.44
2023-03-29T19:01:06.800Z,100386.72
2023-03-29T19:03:37.065Z,100380.59
2023-03-29T19:06:03.964Z,100380.41
2023-03-29T19:08:32.287Z,100385.31
2023-03-29T19:11:04.409Z,100375.16
2023-03-29T19:13:31.012Z,100370.66
2023-03-29T19:15:57.537Z,100367.19
2023-03-29T19:18:24.134Z,100371.06
2023-03-29T19:20:56.198Z,100369.47
2023-03-29T19:23:25.061Z,100376.81
2023-03-29T19:26:00.337Z,100364.38
2023-03-29T19:28:29.474Z,100363.03
2023-03-29T19:30:58.251Z,100358.41
2023-03-29T19:33:24.924Z,100347.59
2023-03-29T19:35:52.108Z,100349.66
2023-03-29T19:38:19.689Z,100343.28
2023-03-29T19:40:47.670Z,100338.22
2023-03-29T19:43:16.479Z,100329.25
2023-03-29T19:45:46.230Z,100331.50
2023-03-29T19:48:21.778Z,100329.06
2023-03-29T19:50:49.389Z,100326.63
2023-03-29T19:53:18.322Z,100322.09
2023-03-29T19:55:45.404Z,100314.31
2023-03-29T19:58:14.334Z,100313.75
2023-03-29T20:00:41.836Z,100309.44
2023-03-29T20:03:11.223Z,100307.78
2023-03-29T20:05:38.958Z,100297.25
2023-03-29T20:08:06.447Z,100293.38
2023-03-29T20:10:35.863Z,100297.44
2023-03-29T20:13:03.037Z,100291.94
2023-03-29T20:15:29.580Z,100291.19
2023-03-29T20:17:59.298Z,100283.91
2023-03-29T20:20:29.885Z,100270.44
2023-03-29T20:23:04.550Z,100272.69
2023-03-29T20:25:31.763Z,100274.75
2023-03-29T20:27:59.563Z,100267.19
2023-03-29T20:30:26.456Z,100262.91
2023-03-29T20:32:53.081Z,100265.16
2023-03-29T20:35:19.729Z,100253.19
2023-03-29T20:37:46.324Z,100249.88
2023-03-29T20:40:15.543Z,100254.13
2023-03-29T20:42:42.187Z,100246.84
2023-03-29T20:45:18.605Z,100245.59
2023-03-29T20:47:50.512Z,100232.16
2023-03-29T20:50:20.089Z,100239.69
2023-03-29T20:52:46.813Z,100240.28
2023-03-29T20:55:13.595Z,100234.53
2023-03-29T20:57:42.352Z,100226.81
2023-03-29T21:00:12.025Z,100236.22
2023-03-29T21:02:41.669Z,100230.09
2023-03-29T21:05:08.723Z,100232.94
2023-03-29T21:07:35.107Z,100232.63
2023-03-29T21:10:01.595Z,100234.44
2023-03-29T21:12:28.149Z,100221.09
2023-03-29T21:14:55.143Z,100208.41
2023-03-29T21:17:27.069Z,100214.13
2023-03-29T21:19:55.040Z,100212.31
2023-03-29T21:22:21.918Z,100211.91
2023-03-29T21:24:48.305Z,100215.53
2023-03-29T21:27:14.797Z,100215.72
2023-03-29T21:29:41.310Z,100205.56
2023-03-29T21:32:07.719Z,100208.47
2023-03-29T21:34:34.324Z,100189.31
2023-03-29T21:37:00.885Z,100188.16
2023-03-29T21:39:27.610Z,100180.75
2023-03-29T21:41:56.783Z,100173.81
2023-03-29T21:44:23.172Z,100184.59
2023-03-29T21:46:52.136Z,100184.81
2023-03-29T21:49:21.139Z,100189.03
2023-03-29T21:51:47.509Z,100189.66
2023-03-29T21:54:13.950Z,100192.03
2023-03-29T21:56:40.480Z,100196.09
2023-03-29T21:59:09.367Z,100194.03
2023-03-29T22:01:36.234Z,100191.97
2023-03-29T22:04:04.168Z,100193.56
2023-03-29T22:06:30.948Z,100184.06
2023-03-29T22:08:57.337Z,100187.72
2023-03-29T22:11:25.571Z,100187.28
2023-03-29T22:13:53.985Z,100195.59
2023-03-29T22:16:20.816Z,100188.19
2023-03-29T22:18:49.622Z,100195.50
2023-03-29T22:21:22.521Z,100190.44
2023-03-29T22:23:51.617Z,100200.25
2023-03-29T22:26:20.985Z,100190.91
2023-03-29T22:28:47.496Z,100199.84
2023-03-29T22:31:16.522Z,100199.22
2023-03-29T22:33:44.029Z,100202.91
2023-03-29T22:36:14.734Z,100199.06
2023-03-29T22:38:41.378Z,100199.59
2023-03-29T22:41:08.280Z,100192.69
2023-03-29T22:43:36.400Z,100191.09
2023-03-29T22:46:07.268Z,100194.34
2023-03-29T22:48:34.305Z,100198.22
2023-03-29T22:51:03.507Z,100196.97
2023-03-29T22:53:30.144Z,100200.47
2023-03-29T22:55:56.585Z,100195.13
2023-03-29T22:58:23.493Z,100201.25
2023-03-29T23:00:51.000Z,100208.78
2023-03-29T23:03:20.196Z,100212.84
2023-03-29T23:05:55.238Z,100212.66
2023-03-29T23:08:23.367Z,100219.53
2023-03-29T23:10:52.620Z,100215.50
2023-03-29T23:13:28.774Z,100213.50
2023-03-29T23:15:59.913Z,100205.78
2023-03-29T23:18:28.800Z,100201.72
2023-03-29T23:21:00.209Z,100184.06
2023-03-29T23:23:28.034Z,100188.53
2023-03-29T23:25:57.882Z,100194.66
2023-03-29T23:28:27.656Z,100190.34
2023-03-29T23:31:06.562Z,100204.00
2023-03-29T23:33:35.754Z,100200.75
2023-03-29T23:36:04.184Z,100199.13
2023-03-29T23:38:31.883Z,100189.56
2023-03-29T23:41:02.110Z,100196.88
2023-03-29T23:43:33.025Z,100170.00
2023-03-29T23:46:01.772Z,100175.59
2023-03-29T23:48:34.273Z,100148.81
2023-03-29T23:51:02.255Z,100156.09
2023-03-29T23:53:30.022Z,100134.50
2023-03-29T23:56:01.442Z,100098.59
2023-03-29T23:58:28.983Z,100092.38
